»·PEaware :: N9401L KSAN-KPSP

N9401L :: KSAN-KPSP

FLIGHT INFORMATION

Flight Status: Arrived
Operator: Privately registered:
United States
More flights under this callsign
Pilot: Juan D. (11620)
Aircraft: PIPER PA-28R-201 ARROW
(P28R)
More flights by this aircraft type
Origin: KSAN San Diego Intl-Lindbergh
United States
Destination: KPSP Palm Springs Intl
United States
More flights between these airports :: More routes between these airports
Route: BRDR7 JLI V208 TRM
File this flight plan on PilotEdge
Remarks:
Altitude:
(Current/Filed)
9,000ft
Speed:
(Current/Filed)
130kts
Departed: 23-Oct-18 08:23 PM
Arrived: 23-Oct-18 09:25 PM
Distance/Time
Traveled:
74nm/1:02
Distance/Time
To Go:
Arrived

Flight Plot

Page will automatically refresh every two minutes.


Map Options




Map Legend


Flown Route
Filed Route
Departure Airport
Arrival Airport
Navaid (VOR, NDB)
Fix

Horizontal Profiles

Position Reports

Time Latitude Longitude Heading Altitude Ground
Speed
23-Oct-18 20:05 32.732421 -117.176641 194 20ft 0kts
23-Oct-18 20:06 32.732421 -117.176641 194 20ft 0kts
23-Oct-18 20:07 32.732421 -117.176641 194 20ft 0kts
23-Oct-18 20:08 32.732421 -117.176641 194 20ft 0kts
23-Oct-18 20:09 32.732421 -117.176641 194 20ft 0kts
23-Oct-18 20:10 32.732421 -117.176641 194 20ft 0kts
23-Oct-18 20:11 32.732421 -117.176641 194 20ft 0kts
23-Oct-18 20:12 32.732421 -117.176641 194 20ft 0kts
23-Oct-18 20:13 32.732421 -117.176641 194 20ft 0kts
23-Oct-18 20:14 32.732421 -117.176641 194 20ft 0kts
23-Oct-18 20:15 32.732421 -117.176641 194 20ft 0kts
23-Oct-18 20:16 32.732421 -117.176641 194 20ft 0kts
23-Oct-18 20:17 32.732421 -117.176641 194 20ft 0kts
23-Oct-18 20:18 32.732096 -117.176742 195 20ft 4kts
23-Oct-18 20:19 32.731044 -117.175606 130 20ft 0kts
23-Oct-18 20:20 32.731044 -117.175606 130 20ft 0kts
23-Oct-18 20:21 32.731044 -117.175606 130 20ft 0kts
23-Oct-18 20:22 32.731044 -117.175606 130 20ft 0kts
23-Oct-18 20:23 32.731044 -117.175606 130 20ft 0kts
23-Oct-18 20:24 32.730581 -117.175230 171 20ft 5kts
23-Oct-18 20:25 32.733232 -117.187740 289 421ft 76kts
23-Oct-18 20:26 32.740655 -117.212279 290 1700ft 81kts
23-Oct-18 20:27 32.747959 -117.237083 289 2927ft 81kts
23-Oct-18 20:28 32.755356 -117.262548 290 4023ft 82kts
23-Oct-18 20:29 32.762887 -117.288325 290 4989ft 84kts
23-Oct-18 20:30 32.752861 -117.304993 147 5884ft 95kts
23-Oct-18 20:31 32.733964 -117.284063 134 6767ft 93kts
23-Oct-18 20:32 32.715140 -117.262552 134 7583ft 95kts
23-Oct-18 20:33 32.696147 -117.240893 134 8358ft 96kts
23-Oct-18 20:34 32.677118 -117.219107 133 9150ft 96kts
23-Oct-18 20:35 32.653607 -117.190323 133 9071ft 142kts
23-Oct-18 20:36 32.625926 -117.156314 132 9019ft 142kts
23-Oct-18 20:37 32.615689 -117.115596 89 9021ft 140kts
23-Oct-18 20:38 32.615303 -117.073472 89 9022ft 140kts
23-Oct-18 20:39 32.614702 -117.032343 89 9022ft 140kts
23-Oct-18 20:40 32.613101 -116.990152 92 9023ft 140kts
23-Oct-18 20:41 32.615201 -116.944798 83 9024ft 140kts
23-Oct-18 20:42 32.619056 -116.899096 80 9024ft 139kts
23-Oct-18 20:43 32.623429 -116.853698 80 9026ft 139kts
23-Oct-18 20:44 32.627757 -116.808283 80 9030ft 138kts
23-Oct-18 20:45 32.635841 -116.765182 33 9029ft 134kts
23-Oct-18 20:46 32.671834 -116.754426 11 9031ft 134kts
23-Oct-18 20:47 32.708186 -116.745017 11 9026ft 134kts
23-Oct-18 20:48 32.743509 -116.735772 11 9021ft 133kts
23-Oct-18 20:49 32.779117 -116.723641 17 9016ft 134kts
23-Oct-18 20:50 32.813756 -116.709440 17 9012ft 133kts
23-Oct-18 20:51 32.848864 -116.695009 17 9014ft 133kts
23-Oct-18 20:52 32.884051 -116.680537 17 9016ft 133kts
23-Oct-18 20:53 32.918544 -116.667746 15 9018ft 133kts
23-Oct-18 20:54 32.954784 -116.654576 15 9020ft 133kts
23-Oct-18 20:55 32.990037 -116.641673 15 9020ft 134kts
23-Oct-18 20:56 33.025951 -116.628249 15 9020ft 134kts
23-Oct-18 20:57 33.061350 -116.614748 15 9020ft 134kts
23-Oct-18 20:58 33.095991 -116.601291 15 9020ft 135kts
23-Oct-18 20:59 33.128967 -116.588278 15 9021ft 136kts
23-Oct-18 21:00 33.164278 -116.574284 16 9013ft 136kts
23-Oct-18 21:01 33.195680 -116.555619 37 9002ft 138kts
23-Oct-18 21:02 33.226563 -116.523670 38 8956ft 140kts
23-Oct-18 21:03 33.256100 -116.495785 35 8919ft 137kts
23-Oct-18 21:04 33.280387 -116.473493 35 8894ft 136kts
23-Oct-18 21:07 33.344880 -116.414771 35 8856ft 136kts
23-Oct-18 21:08 33.378447 -116.384350 35 8847ft 135kts
23-Oct-18 21:09 33.409377 -116.356278 35 8847ft 135kts
23-Oct-18 21:10 33.439223 -116.329118 35 8847ft 135kts
23-Oct-18 21:11 33.467423 -116.303397 35 8847ft 135kts
23-Oct-18 21:12 33.499227 -116.274327 36 8847ft 135kts
23-Oct-18 21:13 33.528643 -116.247356 36 8930ft 134kts
23-Oct-18 21:14 33.556572 -116.221708 36 8929ft 135kts
23-Oct-18 21:15 33.584622 -116.195896 36 8930ft 135kts
23-Oct-18 21:16 33.621507 -116.198220 333 8488ft 144kts
23-Oct-18 21:17 33.657302 -116.221196 333 7799ft 146kts
23-Oct-18 21:18 33.684264 -116.256686 303 6799ft 160kts
23-Oct-18 21:19 33.706654 -116.300594 303 5845ft 151kts
23-Oct-18 21:20 33.724833 -116.336352 303 5037ft 146kts
23-Oct-18 21:21 33.741871 -116.369786 303 4089ft 140kts
23-Oct-18 21:22 33.760092 -116.405275 302 3351ft 128kts
23-Oct-18 21:23 33.778624 -116.451331 305 1954ft 105kts
23-Oct-18 21:24 33.794978 -116.473147 314 1142ft 56kts
23-Oct-18 21:25 33.808473 -116.486003 319 988ft 68kts
23-Oct-18 21:26 33.822583 -116.498495 320 548ft 57kts
23-Oct-18 21:27 33.826875 -116.501462 67 480ft 3kts
23-Oct-18 21:28 33.826794 -116.501264 149 480ft 0kts
23-Oct-18 21:29 33.826794 -116.501264 149 480ft 0kts

Navigation Log

Ident Type
Flight plan parsing failed, navigation log unavailable